Tiempo atmosférico en la estación meteorológica de Castellote, Teruel (755 m.)

Fecha
DESCASC
Temp. máxima en grados centígrados (hora)
DESCASC
Temp. mínima en grados centígrados (hora)
DESCASC
Temp. media en grados centígrados
DESCASC
Racha de viento máxima en m/sg (hora)
DESCASC
Velocidad máxima media en intervalos de 10 minutos(hora)
DESCASC
Precipitaciones diarias en mm
DESCASC
Precipitaciones de 00:00 a 06:00 en mm
DESCASC
Precipitaciones de 06:00 a 12:00 en mm
DESCASC
Precipitaciones de 12:00 a 18:00 en mm
DESCASC
Precipitaciones de 18:00 a 24:00 en mm
DESCASC
21-09-2017 27.4 (16:20) 13.5 (07:40) 20.4 9.72 (18:00) 4.72 (18:20) 0 0 0 0 0
20-09-2017 25.1 (16:30) 11 (08:10) 18.1 11.67 (02:30) 5.83 (02:40) 0 0 0 0 0
19-09-2017 21.6 (17:10) 11.9 (08:00) 16.8 16.39 (17:20) 8.06 (17:20) 0 0 0 0 0
18-09-2017 22.3 (14:50) 10.7 (07:20) 16.5 12.78 (21:10) 7.5 (21:10) 0 0 0 0 0
17-09-2017 22.5 (15:20) 6.6 (00:00) 14.5 10 (14:50) 4.72 (13:50) 0 0 0 0 0
16-09-2017 17.9 (15:00) 7.9 (00:00) 12.9 11.39 (15:10) 5.28 (22:10) 0 0 0 0 0
15-09-2017 13.2 (00:00) 9.5 (00:00) 11.3 9.44 (12:40) 6.11 (13:10) 0.4 0 0 0.4 0
14-09-2017 25.5 (16:00) 13.2 (00:00) 19.3 13.06 (16:30) 6.39 (22:40) 0 0 0 0 0
13-09-2017 29.3 (15:40) 12.9 (00:00) 21.1 8.89 (14:50) 3.89 (14:50) 0 0 0 0 0
12-09-2017 23.3 (18:00) 13.7 (00:00) 18.5 12.22 (16:10) 7.22 (02:30) 0 0 0 0 0
11-09-2017 27.7 (15:50) 15.9 (00:00) 21.8 16.94 (12:00) 9.17 (12:00) 0 0 0 0 0
10-09-2017 19.8 (16:30) 10.8 (00:00) 15.3 23.33 (10:00) 10.56 (10:00) 0 0 0 0 0
09-09-2017 20.5 (07:10) 12.5 (00:00) 16.5 15.28 (13:30) 8.06 (13:30) 0 0 0 0 0
08-09-2017 26.9 (18:10) 13.1 (00:00) 20 8.89 (01:00) 5.28 (01:00) 0 0 0 0 0
07-09-2017 26.5 (16:50) 12.6 (00:00) 19.6 11.67 (03:20) 6.94 (03:20) 0 0 0 0 0
06-09-2017 27.3 (17:30) 17.1 (00:00) 22.2 11.39 (15:20) 7.5 (15:20) 0 0 0 0 0
05-09-2017 29.3 (16:00) 16.2 (00:00) 22.8 9.72 (17:20) 5.83 (17:20) 0 0 0 0 0
04-09-2017 27.2 (16:10) 18.7 (00:00) 23 10.56 (15:00) 5.28 (15:30) 0 0 0 0 0
03-09-2017 26.8 (16:00) 12.6 (00:00) 19.7 7.5 (15:30) 4.44 (15:20) 0 0 0 0 0
02-09-2017 23.8 (18:00) 11.5 (00:00) 17.6 15.83 (13:40) 6.67 (12:30) 0 0 0 0 0
01-09-2017 22.9 (16:10) 14.9 (00:00) 18.9 10.83 (21:40) 6.94 (21:00) 0 0 0 0 0
31-08-2017 22.1 (17:10) 15.2 (00:00) 18.7 10.28 (14:30) 6.94 (13:50) 0 0 0 0 0
30-08-2017 26 (14:20) 16 (00:00) 21 9.72 (01:00) 6.11 (17:20) 8.2 0.6 0 7 0.6
29-08-2017 24.5 (14:40) 16 (00:00) 20.3 12.22 (16:20) 6.39 (17:50) 0.8 0 0 0 0.8
28-08-2017 28.6 (16:10) 17.6 (00:00) 23.1 11.67 (15:40) 6.11 (16:00) 0 0 0 0 0
27-08-2017 29.8 (16:10) 19.6 (00:00) 24.7 11.67 (16:30) 7.5 (16:40) 0 0 0 0 0
26-08-2017 34.5 (15:40) 17.9 (00:00) 26.2 24.72 (18:50) 11.67 (18:50) 7 0 0 0 7
25-08-2017 33.2 (16:00) 22.5 (00:00) 27.9 19.72 (21:50) 10.83 (21:50) 0 0 0 0 0
24-08-2017 33.6 (14:20) 18.9 (00:00) 26.2 13.61 (02:30) 8.89 (02:30) 0 0 0 0 0

Gráficas

Temp. máximas Temp. mínimas Temp. medias Precipitaciones Rachas de viento máximas Velocidades máximas media en intervalos de 10 minutos

Datos horarios

Fecha y hora oficial Temperatura (ºC) Velocidad del viento (km/h) Dirección del viento Racha (km/h) Dirección de racha Precipitación (mm) Presión (hPa) Tendencia (hPa) Humedad (%)
2017-09-22 23:00:00 16.9 26 Oeste 39 Oeste 1 -- -- 59
2017-09-22 22:00:00 15.7 2 Sudeste 10 Este 1.6 -- -- 78
2017-09-22 21:00:00 15.6 10 Este 17 Sudeste 0 -- -- 80
2017-09-22 20:00:00 16.4 6 Sudeste 13 Norte 0 -- -- 80
2017-09-22 19:00:00 17.9 4 Sudeste 12 Este 0 -- -- 74
2017-09-22 18:00:00 17.5 5 Norte 21 Este 0 -- -- 75
2017-09-22 17:00:00 17.4 6 Nordeste 24 Este 0 -- -- 76
2017-09-22 16:00:00 18.8 7 Este 22 Este 0 -- -- 72
2017-09-22 15:00:00 18.1 4 Nordeste 23 Este 0.2 -- -- 71
2017-09-22 14:00:00 19.3 5 Este 24 Nordeste 0 -- -- 60
2017-09-22 13:00:00 18.7 8 Este 18 Este 0 -- -- 68
2017-09-22 12:00:00 18.6 4 Sudeste 10 Este 0 -- -- 66
2017-09-22 11:00:00 14.7 7 Este 31 Oeste 0.6 -- -- 85
2017-09-22 10:00:00 15 21 Oeste 51 Oeste 0.2 -- -- 72
2017-09-22 09:00:00 15.5 2 Nordeste 8 Este 0 -- -- 85
2017-09-22 08:00:00 15.1 5 Este 9 Este 0 -- -- 87
2017-09-22 07:00:00 15.5 2 Sudeste 12 Este 0 -- -- 84
2017-09-22 06:00:00 15.7 3 Este 10 Nordeste 0 -- -- 83
2017-09-22 05:00:00 16 0 Calma 18 Oeste 0 -- -- 85
2017-09-22 04:00:00 17 8 Oeste 10 Oeste 0 -- -- 74
2017-09-22 03:00:00 17.4 4 Norte 10 Noroeste 0 -- -- 75
2017-09-22 02:00:00 17.6 0 Calma 8 Sudeste 0 -- -- 78
2017-09-22 01:00:00 17.8 5 Sur 8 Sur 0 -- -- 79
2017-09-22 00:00:00 18.2 4 Sudeste 12 Sudoeste 0 -- -- 79
2017-09-21 23:00:00 18.4 9 Sur 20 Sudoeste 0 -- -- 81
2017-09-21 22:00:00 19.2 6 Sudeste 18 Este 0 -- -- 73
2017-09-21 21:00:00 20.3 13 Este 21 Sudeste 0 -- -- 69
2017-09-21 20:00:00 21.8 10 Sudeste 19 Sur 0 -- -- 62
2017-09-21 19:00:00 24 13 Este 29 Este 0 -- -- 54
2017-09-21 18:00:00 26.4 12 Este 35 Este 0 -- -- 37
2017-09-21 17:00:00 26.9 9 Este 30 Nordeste 0 -- -- 35
2017-09-21 16:00:00 27 12 Este 24 Este 0 -- -- 34
2017-09-21 15:00:00 26.7 10 Norte 26 Este 0 -- -- 35
2017-09-21 14:00:00 25.4 10 Nordeste 28 Este 0 -- -- 37
2017-09-21 13:00:00 24.1 13 Nordeste 22 Nordeste 0 -- -- 41
2017-09-21 12:00:00 23 7 Norte 15 Norte 0 -- -- 45
2017-09-21 11:00:00 20.7 3 Este 10 Este 0 -- -- 48
2017-09-21 10:00:00 17.8 6 Este 9 Nordeste 0 -- -- 56
2017-09-21 09:00:00 15.1 5 Nordeste 11 Este 0 -- -- 63
2017-09-21 08:00:00 13.6 6 Este 10 Este 0 -- -- 68
2017-09-21 07:00:00 14.4 3 Sudeste 8 Este 0 -- -- 65
2017-09-21 06:00:00 14.2 4 Este 6 Este 0 -- -- 66
2017-09-21 05:00:00 14.9 6 Este 9 Este 0 -- -- 64
2017-09-21 04:00:00 15.2 0 Calma 8 Este 0 -- -- 60
2017-09-21 03:00:00 15.1 2 Sudeste 8 Sudeste 0 -- -- 57
2017-09-21 02:00:00 15.6 5 Sudeste 8 Sudeste 0 -- -- 51
2017-09-21 01:00:00 15.9 5 Este 12 Sudeste 0 -- -- 46
2017-09-21 00:00:00 16.2 5 Sudeste 9 Sudeste 0 -- -- 38
2017-09-20 23:00:00 17 3 Sudeste 9 Sur 0 -- -- 39
2017-09-20 22:00:00 18.4 0 Calma 8 Este 0 -- -- 50
2017-09-20 21:00:00 18.9 3 Oeste 7 Nordeste 0 -- -- 26
2017-09-20 20:00:00 20.5 3 Norte 14 Nordeste 0 -- -- 24
2017-09-20 19:00:00 22.6 5 Norte 22 Este 0 -- -- 22
2017-09-20 18:00:00 22.8 12 Nordeste 33 Este 0 -- -- 21
2017-09-20 17:00:00 23.5 14 Nordeste 27 Nordeste 0 -- -- 21
2017-09-20 16:00:00 23.9 8 Nordeste 33 Este 0 -- -- 21
2017-09-20 15:00:00 23.4 15 Este 33 Este 0 -- -- 21
2017-09-20 14:00:00 22.8 6 Nordeste 19 Este 0 -- -- 22
2017-09-20 13:00:00 21 6 Este 18 Este 0 -- -- 24
2017-09-20 12:00:00 19.3 5 Norte 17 Este 0 -- -- 26
2017-09-20 11:00:00 17.7 5 Este 12 Este 0 -- -- 25
2017-09-20 10:00:00 15.1 5 Este 11 Este 0 -- -- 32
2017-09-20 09:00:00 12.4 2 Sudeste 8 Este 0 -- -- 33
2017-09-20 08:00:00 11.1 2 Este 6 Sudeste 0 -- -- 35
2017-09-20 07:00:00 12.2 2 Sudeste 11 Oeste 0 -- -- 32
2017-09-20 06:00:00 14.1 6 Noroeste 19 Oeste 0 -- -- 26
2017-09-20 05:00:00 14.3 5 Sudoeste 17 Noroeste 0 -- -- 28
2017-09-20 04:00:00 13.8 4 Sudoeste 19 Oeste 0 -- -- 36
2017-09-20 03:00:00 14.4 14 Oeste 42 Oeste 0 -- -- 41
2017-09-20 02:00:00 13.3 10 Oeste 28 Oeste 0 -- -- 55
2017-09-20 01:00:00 14 7 Noroeste 30 Noroeste 0 -- -- 52
2017-09-20 00:00:00 14.6 11 Oeste 28 Noroeste 0 -- -- 50
2017-09-19 23:00:00 15.1 12 Oeste 28 Sudoeste 0 -- -- 48
2017-09-19 22:00:00 15.6 0 Calma 26 Oeste 0 -- -- 46
2017-09-19 21:00:00 16.8 10 Noroeste 32 Noroeste 0 -- -- 43
2017-09-19 20:00:00 18 18 Noroeste 33 Noroeste 0 -- -- 39
2017-09-19 19:00:00 20.2 19 Noroeste 43 Norte 0 -- -- 34
2017-09-19 18:00:00 21.3 20 Noroeste 59 Noroeste 0 -- -- 30
2017-09-19 17:00:00 21.4 19 Noroeste 46 Oeste 0 -- -- 23
2017-09-19 16:00:00 20.6 14 Noroeste 44 Norte 0 -- -- 26
2017-09-19 15:00:00 19.6 18 Oeste 39 Noroeste 0 -- -- 28
2017-09-19 14:00:00 18.8 19 Noroeste 46 Oeste 0 -- -- 36
2017-09-19 13:00:00 18.1 13 Oeste 41 Oeste 0 -- -- 41
2017-09-19 12:00:00 16.3 14 Oeste 37 Oeste 0 -- -- 51
2017-09-19 11:00:00 14.4 13 Oeste 32 Oeste 0 -- -- 59
2017-09-19 10:00:00 13.2 13 Noroeste 34 Noroeste 0 -- -- 68
2017-09-19 09:00:00 12.1 15 Noroeste 31 Noroeste 0 -- -- 75
2017-09-19 08:00:00 11.9 6 Noroeste 36 Oeste 0 -- -- 77
2017-09-19 07:00:00 12.3 18 Oeste 37 Noroeste 0 -- -- 77
2017-09-19 06:00:00 12.7 14 Oeste 34 Norte 0 -- -- 77
2017-09-19 05:00:00 12.9 8 Noroeste 33 Noroeste 0 -- -- 77
2017-09-19 04:00:00 13 8 Oeste 21 Oeste 0 -- -- 76
2017-09-19 03:00:00 13.1 5 Oeste 14 Oeste 0 -- -- 75
2017-09-19 02:00:00 13.4 5 Sudoeste 14 Sudoeste 0 -- -- 71
2017-09-19 01:00:00 14 6 Sudoeste 25 Noroeste 0 -- -- 68
2017-09-19 00:00:00 14.9 7 Oeste 25 Oeste 0 -- -- 65
2017-09-18 23:00:00 15.5 8 Oeste 28 Norte 0 -- -- 61
2017-09-18 22:00:00 15.9 21 Noroeste 46 Noroeste 0 -- -- 61
2017-09-18 21:00:00 16.6 26 Oeste 46 Oeste 0 -- -- 58
2017-09-18 20:00:00 17.7 17 Oeste 33 Oeste 0 -- -- 53
2017-09-18 19:00:00 19.6 8 Nordeste 44 Oeste 0 -- -- 48
2017-09-18 18:00:00 21.3 8 Sur 36 Nordeste 0 -- -- 40
2017-09-18 17:00:00 21.6 11 Este 39 Oeste 0 -- -- 38
2017-09-18 16:00:00 22 14 Sudoeste 31 Sudoeste 0 -- -- 38
2017-09-18 15:00:00 21.8 16 Sudoeste 35 Oeste 0 -- -- 36
2017-09-18 14:00:00 21.3 9 Sur 40 Noroeste 0 -- -- 36
2017-09-18 13:00:00 19.1 21 Oeste 39 Oeste 0 -- -- 38
2017-09-18 12:00:00 18.6 8 Oeste 21 Oeste 0 -- -- 39
2017-09-18 11:00:00 15.9 5 Este 18 Norte 0 -- -- 46
2017-09-18 10:00:00 14.4 6 Nordeste 18 Nordeste 0 -- -- 47
2017-09-18 09:00:00 11.4 3 Este 6 Sudeste 0 -- -- 54
2017-09-18 08:00:00 11 2 Este 4 Nordeste 0 -- -- 57
2017-09-18 07:00:00 11 2 Este 6 Este 0 -- -- 58
2017-09-18 06:00:00 11.8 3 Nordeste 5 Este 0 -- -- 54
2017-09-18 05:00:00 12 0 Calma 4 Nordeste 0 -- -- 53
2017-09-18 04:00:00 12.4 4 Este 8 Nordeste 0 -- -- 52
2017-09-18 03:00:00 12.3 7 Este 10 Nordeste 0 -- -- 53
2017-09-18 02:00:00 13 3 Este 6 Este 0 -- -- 51
2017-09-18 01:00:00 13.3 3 Este 5 Este 0 -- -- 50
2017-09-18 00:00:00 14.4 2 Nordeste 5 Nordeste 0 -- -- 47
2017-09-17 23:00:00 15.3 0 Calma 11 Nordeste 0 -- -- 44
2017-09-17 22:00:00 15.8 4 Norte 8 Norte 0 -- -- 43
2017-09-17 21:00:00 16.5 3 Norte 9 Nordeste 0 -- -- 41
2017-09-17 20:00:00 17.7 5 Nordeste 21 Nordeste 0 -- -- 38
2017-09-17 19:00:00 18.8 9 Este 28 Nordeste 0 -- -- 35
2017-09-17 18:00:00 19 14 Nordeste 26 Norte 0 -- -- 36
2017-09-17 17:00:00 20.8 13 Este 32 Sudeste 0 -- -- 34
2017-09-17 16:00:00 21.4 12 Nordeste 26 Nordeste 0 -- -- 31
2017-09-17 15:00:00 22.1 14 Este 36 Este 0 -- -- 29
2017-09-17 14:00:00 21.2 11 Nordeste 31 Este 0 -- -- 30
2017-09-17 13:00:00 20.1 8 Este 26 Este 0 -- -- 33
2017-09-17 12:00:00 19.1 5 Norte 14 Este 0 -- -- 37
2017-09-17 11:00:00 16 4 Nordeste 9 Este 0 -- -- 44
2017-09-17 10:00:00 12.3 3 Sudeste 9 Este 0 -- -- 55
2017-09-17 09:00:00 9.6 3 Sudeste 10 Este 0 -- -- 62
2017-09-17 08:00:00 6.8 5 Este 10 Sudeste 0 -- -- 72
2017-09-17 07:00:00 6.7 4 Este 7 Este 0 -- -- 73
2017-09-17 06:00:00 7.1 4 Este 8 Este 0 -- -- 71
2017-09-17 05:00:00 7.6 3 Este 8 Este 0 -- -- 69
2017-09-17 04:00:00 8.2 5 Sudeste 9 Sudeste 0 -- -- 67
2017-09-17 03:00:00 9.1 4 Este 9 Este 0 -- -- 64
2017-09-17 02:00:00 9.6 0 Calma 8 Este 0 -- -- 63
2017-09-17 01:00:00 10.7 3 Nordeste 22 Oeste 0 -- -- 59
2017-09-17 00:00:00 11.7 12 Oeste 27 Oeste 0 -- -- 55
2017-09-16 23:00:00 12.1 16 Noroeste 27 Noroeste 0 -- -- 55
2017-09-16 22:00:00 12.8 18 Noroeste 39 Oeste 0 -- -- 51
2017-09-16 21:00:00 14 9 Oeste 28 Oeste 0 -- -- 47
2017-09-16 20:00:00 15 2 Sudeste 21 Este 0 -- -- 45
2017-09-16 19:00:00 15.9 6 Sudeste 17 Este 0 -- -- 43
2017-09-16 18:00:00 16.4 4 Este 19 Este 0 -- -- 41
2017-09-16 17:00:00 16.7 11 Sudeste 33 Sudeste 0 -- -- 40
2017-09-16 16:00:00 16.7 17 Sudeste 41 Sudoeste 0 -- -- 41
2017-09-16 15:00:00 17.9 12 Sudoeste 38 Oeste 0 -- -- 37
2017-09-16 14:00:00 16 9 Noroeste 35 Noroeste 0 -- -- 40
2017-09-16 13:00:00 14.5 13 Oeste 32 Oeste 0 -- -- 45
2017-09-16 12:00:00 13.5 13 Oeste 30 Oeste 0 -- -- 48
2017-09-16 11:00:00 12 13 Oeste 26 Oeste 0 -- -- 50
2017-09-16 10:00:00 11 3 Sudeste 10 Este 0 -- -- 61
2017-09-16 09:00:00 9 2 Sur 19 Sudoeste 0 -- -- 69
2017-09-16 08:00:00 8 12 Sudoeste 31 Oeste 0 -- -- 72
2017-09-16 07:00:00 7.9 11 Oeste 25 Oeste 0 -- -- 72
2017-09-16 06:00:00 8.1 16 Oeste 29 Oeste 0 -- -- 72
2017-09-16 05:00:00 8 3 Noroeste 16 Oeste 0 -- -- 73
2017-09-16 04:00:00 8.5 12 Oeste 21 Oeste 0 -- -- 72
2017-09-16 03:00:00 8.9 13 Oeste 21 Oeste 0 -- -- 72
2017-09-16 02:00:00 9.5 5 Sudoeste 20 Norte 0 -- -- 68
2017-09-16 01:00:00 10.2 5 Oeste 27 Noroeste 0 -- -- 66
2017-09-16 00:00:00 11.2 12 Oeste 30 Oeste 0 -- -- 61
2017-09-15 23:00:00 12 14 Noroeste 28 Noroeste 0 -- -- 63
2017-09-15 22:00:00 12.5 9 Oeste 25 Oeste 0 -- -- 62
2017-09-15 21:00:00 12.5 9 Oeste 23 Oeste 0 -- -- 64
2017-09-15 20:00:00 12.2 5 Sur 21 Noroeste 0 -- -- 65
2017-09-15 19:00:00 11.7 3 Sudeste 8 Sudeste 0 -- -- 65
2017-09-15 18:00:00 11.1 3 Sur 8 Sur 0 -- -- 68
2017-09-15 17:00:00 9.8 11 Oeste 25 Oeste 0.4 -- -- 75
2017-09-15 16:00:00 10 8 Noroeste 27 Oeste 0 -- -- 81
2017-09-15 15:00:00 11 8 Sudeste 31 Noroeste 0 -- -- 71
2017-09-15 14:00:00 10.5 13 Noroeste 32 Oeste 0 -- -- 74
2017-09-15 13:00:00 10.2 14 Noroeste 34 Oeste 0 -- -- 75
2017-09-15 12:00:00 11.1 8 Noroeste 22 Oeste 0 -- -- 69
2017-09-15 11:00:00 11.3 12 Noroeste 26 Noroeste 0 -- -- 66
2017-09-15 10:00:00 11.2 11 Noroeste 21 Oeste 0 -- -- 65
2017-09-15 09:00:00 11.5 9 Noroeste 20 Noroeste 0 -- -- 61
2017-09-15 08:00:00 11.5 8 Noroeste 18 Noroeste 0 -- -- 61
2017-09-15 07:00:00 11.7 12 Noroeste 25 Oeste 0 -- -- 60
2017-09-15 06:00:00 12.1 13 Noroeste 24 Noroeste 0 -- -- 58
2017-09-15 05:00:00 12.3 9 Oeste 15 Oeste 0 -- -- 60
2017-09-15 04:00:00 12.4 3 Este 4 Este 0 -- -- 63
2017-09-15 03:00:00 12.7 2 Este 5 Este 0 -- -- 62
2017-09-15 02:00:00 12.4 4 Oeste 24 Oeste 0 -- -- 61
2017-09-15 01:00:00 12.7 3 Sur 24 Oeste 0 -- -- 61
2017-09-15 00:00:00 13.2 14 Oeste 34 Oeste 0 -- -- 59
2017-09-14 23:00:00 13.8 20 Oeste 38 Oeste 0 -- -- 58
2017-09-14 22:00:00 14.5 16 Oeste 39 Noroeste 0 -- -- 57
2017-09-14 21:00:00 15.7 19 Noroeste 37 Oeste 0 -- -- 55
2017-09-14 20:00:00 17.5 4 Nordeste 27 Este 0 -- -- 54
2017-09-14 19:00:00 19.2 8 Sudoeste 36 Oeste 0 -- -- 50
2017-09-14 18:00:00 21.5 12 Este 42 Oeste 0 -- -- 46
2017-09-14 17:00:00 23.3 14 Sudeste 47 Sudoeste 0 -- -- 44
2017-09-14 16:00:00 25.5 11 Sur 37 Oeste 0 -- -- 44
2017-09-14 15:00:00 23.7 21 Oeste 45 Oeste 0 -- -- 48
2017-09-14 14:00:00 23.6 18 Oeste 44 Sudoeste 0 -- -- 45
2017-09-14 13:00:00 25 12 Sur 33 Oeste 0 -- -- 45
2017-09-14 12:00:00 21.7 16 Este 37 Nordeste 0 -- -- 57
2017-09-14 11:00:00 21.2 18 Nordeste 30 Nordeste 0 -- -- 58
2017-09-14 10:00:00 23.4 6 Oeste 19 Oeste 0 -- -- 44
2017-09-14 09:00:00 21.4 4 Este 7 Este 0 -- -- 47
2017-09-14 08:00:00 19.5 4 Este 7 Este 0 -- -- 53
2017-09-14 07:00:00 20.5 4 Sudoeste 20 Sudoeste 0 -- -- 50
2017-09-14 06:00:00 21.6 14 Sudoeste 25 Sudoeste 0 -- -- 46
2017-09-14 05:00:00 20 4 Sudeste 10 Sudeste 0 -- -- 53
2017-09-14 04:00:00 19.9 5 Sudeste 10 Sur 0 -- -- 55
2017-09-14 03:00:00 20.4 6 Sudeste 10 Sur 0 -- -- 55
2017-09-14 02:00:00 19.1 4 Sudeste 10 Sudoeste 0 -- -- 65
2017-09-14 01:00:00 19.2 6 Sudeste 10 Sudoeste 0 -- -- 68
2017-09-14 00:00:00 19.8 3 Sudoeste 4 Sudeste 0 -- -- 68
2017-09-13 23:00:00 20.6 5 Sur 9 Sur 0 -- -- 65
2017-09-13 22:00:00 21 4 Sudeste 12 Este 0 -- -- 64
2017-09-13 21:00:00 22.2 9 Este 19 Sudeste 0 -- -- 59
2017-09-13 20:00:00 24.8 6 Sudeste 18 Este 0 -- -- 46
2017-09-13 19:00:00 27.4 10 Este 27 Este 0 -- -- 39
2017-09-13 18:00:00 28.5 9 Norte 25 Norte 0 -- -- 31
2017-09-13 17:00:00 28.9 11 Nordeste 26 Este 0 -- -- 30
2017-09-13 16:00:00 29.1 10 Este 27 Este 0 -- -- 30
2017-09-13 15:00:00 28.7 12 Este 32 Este 0 -- -- 30
2017-09-13 14:00:00 27.6 9 Nordeste 18 Nordeste 0 -- -- 32
2017-09-13 13:00:00 26.4 8 Nordeste 17 Nordeste 0 -- -- 34
2017-09-13 12:00:00 24.4 5 Este 10 Este 0 -- -- 36
2017-09-13 11:00:00 20.8 4 Sudeste 10 Este 0 -- -- 43
2017-09-13 10:00:00 18.1 3 Este 7 Sudeste 0 -- -- 51
2017-09-13 09:00:00 15.4 0 Calma 4 Este 0 -- -- 61
2017-09-13 08:00:00 12.9 0 Calma 6 Este 0 -- -- 68
2017-09-13 07:00:00 13.3 2 Nordeste 4 Nordeste 0 -- -- 65
2017-09-13 06:00:00 13.5 0 Calma 4 Oeste 0 -- -- 66
2017-09-13 05:00:00 13.9 3 Nordeste 5 Sur 0 -- -- 64
2017-09-13 04:00:00 13.9 2 Sudeste 5 Este 0 -- -- 65
2017-09-13 03:00:00 14.2 2 Nordeste 8 Este 0 -- -- 64
2017-09-13 02:00:00 14.6 2 Este 4 Este 0 -- -- 62
2017-09-13 01:00:00 15.4 3 Sudeste 6 Sur 0 -- -- 60
2017-09-13 00:00:00 16.4 0 Calma 5 Sur 0 -- -- 57
2017-09-12 23:00:00 17.3 2 Este 9 Oeste 0 -- -- 54
2017-09-12 22:00:00 17.7 3 Norte 10 Este 0 -- -- 52
2017-09-12 21:00:00 18.6 3 Este 24 Oeste 0 -- -- 50
2017-09-12 20:00:00 20.1 6 Sur 20 Norte 0 -- -- 47
2017-09-12 19:00:00 22 8 Sudeste 37 Oeste 0 -- -- 41
2017-09-12 18:00:00 23.3 10 Sudoeste 35 Noroeste 0 -- -- 35
2017-09-12 17:00:00 22.8 17 Oeste 44 Oeste 0 -- -- 34
2017-09-12 16:00:00 21.9 16 Oeste 41 Oeste 0 -- -- 38
2017-09-12 15:00:00 21.4 17 Noroeste 41 Oeste 0 -- -- 42
2017-09-12 14:00:00 19.1 14 Noroeste 36 Noroeste 0 -- -- 51
2017-09-12 13:00:00 19 13 Noroeste 43 Oeste 0 -- -- 50
2017-09-12 12:00:00 15.9 18 Oeste 36 Oeste 0 -- -- 62
2017-09-12 11:00:00 14.7 15 Oeste 39 Noroeste 0 -- -- 68
2017-09-12 10:00:00 14.3 12 Oeste 32 Oeste 0 -- -- 69
2017-09-12 09:00:00 14 12 Oeste 31 Sudoeste 0 -- -- 72
2017-09-12 08:00:00 13.7 9 Oeste 24 Oeste 0 -- -- 74
2017-09-12 07:00:00 13.9 10 Oeste 25 Oeste 0 -- -- 74
2017-09-12 06:00:00 14.1 11 Oeste 28 Oeste 0 -- -- 73
2017-09-12 05:00:00 14.1 9 Oeste 23 Noroeste 0 -- -- 74
2017-09-12 04:00:00 14.3 12 Oeste 26 Oeste 0 -- -- 74
2017-09-12 03:00:00 14.5 16 Noroeste 40 Noroeste 0 -- -- 74
2017-09-12 02:00:00 15.3 19 Noroeste 35 Noroeste 0 -- -- 70
2017-09-12 01:00:00 16.2 17 Noroeste 29 Noroeste 0 -- -- 68
2017-09-12 00:00:00 17.5 5 Noroeste 23 Norte 0 -- -- 65
2017-09-11 23:00:00 18.2 17 Noroeste 33 Oeste 0 -- -- 63
2017-09-11 22:00:00 19.8 19 Oeste 33 Oeste 0 -- -- 59
2017-09-11 21:00:00 20.7 3 Sudeste 29 Nordeste 0 -- -- 57
2017-09-11 20:00:00 21.9 15 Este 32 Nordeste 0 -- -- 54
2017-09-11 19:00:00 23.8 10 Este 36 Este 0 -- -- 49
2017-09-11 18:00:00 24.8 18 Este 35 Este 0 -- -- 46
2017-09-11 17:00:00 26.8 12 Sudeste 37 Oeste 0 -- -- 39
2017-09-11 16:00:00 26.9 21 Oeste 59 Oeste 0 -- -- 37
2017-09-11 15:00:00 26.4 19 Noroeste 52 Noroeste 0 -- -- 38
2017-09-11 14:00:00 25.5 22 Oeste 51 Oeste 0 -- -- 40
2017-09-11 13:00:00 24.3 19 Oeste 50 Noroeste 0 -- -- 43
2017-09-11 12:00:00 23 33 Oeste 61 Noroeste 0 -- -- 46
2017-09-11 11:00:00 22.1 18 Oeste 57 Noroeste 0 -- -- 47
2017-09-11 10:00:00 20.4 14 Oeste 40 Sudoeste 0 -- -- 45
2017-09-11 09:00:00 19.1 8 Oeste 21 Oeste 0 -- -- 48
2017-09-11 08:00:00 17.7 4 Sudoeste 19 Noroeste 0 -- -- 47
2017-09-11 07:00:00 17.8 6 Oeste 16 Sudoeste 0 -- -- 43
2017-09-11 06:00:00 17.6 2 Sudoeste 16 Sudoeste 0 -- -- 40
2017-09-11 05:00:00 18.2 6 Oeste 14 Norte 0 -- -- 39
2017-09-11 04:00:00 18.5 4 Sur 28 Oeste 0 -- -- 48
2017-09-11 03:00:00 18.3 5 Oeste 15 Oeste 0 -- -- 41
2017-09-11 02:00:00 16.3 5 Noroeste 13 Noroeste 0 -- -- 48
2017-09-11 01:00:00 16.3 2 Sudoeste 11 Norte 0 -- -- 48
2017-09-11 00:00:00 16.3 5 Nordeste 22 Noroeste 0 -- -- 49
2017-09-10 23:00:00 16.3 6 Oeste 17 Noroeste 0 -- -- 47
2017-09-10 22:00:00 16.7 8 Sudoeste 19 Oeste 0 -- -- 45
2017-09-10 21:00:00 16.9 2 Sur 20 Noroeste 0 -- -- 44
2017-09-10 20:00:00 17.9 9 Oeste 42 Oeste 0 -- -- 42
2017-09-10 19:00:00 19.3 23 Oeste 49 Noroeste 0 -- -- 41
2017-09-10 18:00:00 19.6 28 Oeste 61 Oeste 0 -- -- 38
2017-09-10 17:00:00 19.4 23 Noroeste 60 Oeste 0 -- -- 39
2017-09-10 16:00:00 19.4 20 Noroeste 64 Oeste 0 -- -- 40
2017-09-10 15:00:00 18.6 31 Noroeste 73 Oeste 0 -- -- 42
2017-09-10 14:00:00 17.4 31 Oeste 63 Noroeste 0 -- -- 45
2017-09-10 13:00:00 16.3 30 Oeste 81 Noroeste 0 -- -- 50
2017-09-10 12:00:00 15.5 33 Oeste 64 Oeste 0 -- -- 52
2017-09-10 11:00:00 14.2 31 Oeste 80 Oeste 0 -- -- 56
2017-09-10 10:00:00 13 38 Oeste 84 Oeste 0 -- -- 60
2017-09-10 09:00:00 11.8 33 Oeste 63 Noroeste 0 -- -- 64
2017-09-10 08:00:00 11 30 Oeste 72 Noroeste 0 -- -- 67
2017-09-10 07:00:00 10.9 28 Oeste 59 Oeste 0 -- -- 67
2017-09-10 06:00:00 10.9 35 Oeste 63 Oeste 0 -- -- 66
2017-09-10 05:00:00 10.9 28 Oeste 73 Noroeste 0 -- -- 66
2017-09-10 04:00:00 11.2 15 Oeste 47 Oeste 0 -- -- 66
2017-09-10 03:00:00 11.2 17 Oeste 55 Noroeste 0 -- -- 68
2017-09-10 02:00:00 11.4 15 Noroeste 42 Oeste 0 -- -- 69
2017-09-10 01:00:00 11.9 14 Oeste 34 Sudoeste 0 -- -- 67
2017-09-10 00:00:00 12.5 10 Oeste 24 Noroeste 0 -- -- 65
2017-09-09 23:00:00 13.5 10 Noroeste 51 Oeste 0 -- -- 60
2017-09-09 22:00:00 13.6 18 Oeste 44 Noroeste 0 -- -- 69
2017-09-09 21:00:00 14.6 23 Oeste 41 Oeste 0 -- -- 62
2017-09-09 20:00:00 14.5 11 Oeste 30 Oeste 0 -- -- 59
2017-09-09 19:00:00 14.6 19 Noroeste 48 Noroeste 0 -- -- 60
2017-09-09 18:00:00 16.5 14 Noroeste 41 Noroeste 0 -- -- 55
2017-09-09 17:00:00 16.7 13 Noroeste 40 Noroeste 0 -- -- 58
2017-09-09 16:00:00 15.6 21 Oeste 41 Oeste 0 -- -- 62
2017-09-09 15:00:00 14.3 17 Oeste 47 Noroeste 0 -- -- 74
2017-09-09 14:00:00 15.3 28 Noroeste 55 Noroeste 0 -- -- 66
2017-09-09 13:00:00 17.6 17 Noroeste 39 Oeste 0 -- -- 62
2017-09-09 12:00:00 17.3 16 Noroeste 35 Oeste 0 -- -- 63
2017-09-09 11:00:00 16.7 10 Oeste 27 Oeste 0 -- -- 64
2017-09-09 10:00:00 16.4 12 Oeste 31 Oeste 0 -- -- 65
2017-09-09 09:00:00 15.7 15 Oeste 34 Noroeste 0 -- -- 64
2017-09-09 08:00:00 16.2 11 Norte 27 Norte 0 -- -- 65
2017-09-09 07:00:00 20.1 5 Oeste 12 Oeste 0 -- -- 31
2017-09-09 06:00:00 18.8 3 Sudeste 8 Sudeste 0 -- -- 51
2017-09-09 05:00:00 19 4 Sur 12 Sudeste 0 -- -- 54
2017-09-09 04:00:00 19.8 4 Sur 15 Oeste 0 -- -- 51
2017-09-09 03:00:00 18.4 4 Este 9 Este 0 -- -- 63
2017-09-09 02:00:00 18.6 3 Sur 6 Sudeste 0 -- -- 72
2017-09-09 01:00:00 19.6 2 Este 8 Sudeste 0 -- -- 73
2017-09-09 00:00:00 19.3 6 Sur 14 Sur 0 -- -- 79
2017-09-08 23:00:00 20.3 4 Sur 13 Sudoeste 0 -- -- 75
2017-09-08 22:00:00 21.1 6 Sur 17 Sudeste 0 -- -- 72
2017-09-08 21:00:00 22.1 10 Sudeste 23 Este 0 -- -- 68
2017-09-08 20:00:00 24.7 8 Este 17 Nordeste 0 -- -- 40
2017-09-08 19:00:00 25.8 9 Norte 19 Norte 0 -- -- 29
2017-09-08 18:00:00 26.4 7 Nordeste 23 Este 0 -- -- 27
2017-09-08 17:00:00 26.6 6 Nordeste 24 Este 0 -- -- 27
2017-09-08 16:00:00 25.1 13 Nordeste 29 Nordeste 0 -- -- 29
2017-09-08 15:00:00 25.1 11 Nordeste 21 Norte 0 -- -- 32
2017-09-08 14:00:00 24.1 11 Norte 25 Nordeste 0 -- -- 37
2017-09-08 13:00:00 22.4 9 Nordeste 23 Nordeste 0 -- -- 36
2017-09-08 12:00:00 20.7 8 Norte 18 Nordeste 0 -- -- 45
2017-09-08 11:00:00 17.9 5 Norte 10 Nordeste 0 -- -- 51
2017-09-08 10:00:00 16 3 Sur 12 Noroeste 0 -- -- 52
2017-09-08 09:00:00 14.5 3 Este 4 Este 0 -- -- 46
2017-09-08 08:00:00 13.3 0 Calma 6 Este 0 -- -- 48
2017-09-08 07:00:00 14.1 2 Norte 6 Nordeste 0 -- -- 46
2017-09-08 06:00:00 14.8 3 Este 7 Este 0 -- -- 45
2017-09-08 05:00:00 15.9 3 Nordeste 9 Sudeste 0 -- -- 42
2017-09-08 04:00:00 17.2 3 Sudeste 15 Sudeste 0 -- -- 41
2017-09-08 03:00:00 17.6 2 Este 11 Sur 0 -- -- 42
2017-09-08 02:00:00 18.1 3 Sudoeste 27 Oeste 0 -- -- 42
2017-09-08 01:00:00 18.7 19 Oeste 32 Oeste 0 -- -- 43
2017-09-08 00:00:00 18.5 5 Nordeste 17 Oeste 0 -- -- 45
2017-09-07 23:00:00 18.8 5 Nordeste 23 Oeste 0 -- -- 45
2017-09-07 22:00:00 20 11 Oeste 33 Oeste 0 -- -- 41
2017-09-07 21:00:00 20.9 12 Oeste 29 Noroeste 0 -- -- 39
2017-09-07 20:00:00 22.6 13 Noroeste 32 Norte 0 -- -- 31
2017-09-07 19:00:00 24.1 6 Sudeste 30 Este 0 -- -- 29
2017-09-07 18:00:00 24.9 6 Sudeste 31 Oeste 0 -- -- 28
2017-09-07 17:00:00 26.1 9 Sur 38 Oeste 0 -- -- 24
2017-09-07 16:00:00 24.6 19 Oeste 35 Oeste 0 -- -- 25
2017-09-07 15:00:00 23.6 15 Oeste 29 Oeste 0 -- -- 27
2017-09-07 14:00:00 22.6 9 Sudoeste 31 Oeste 0 -- -- 36
2017-09-07 13:00:00 19.7 9 Sudoeste 28 Oeste 0 -- -- 43
2017-09-07 12:00:00 17.9 13 Oeste 33 Oeste 0 -- -- 49
2017-09-07 11:00:00 16.4 13 Noroeste 28 Norte 0 -- -- 52
2017-09-07 10:00:00 15.1 7 Sudoeste 33 Noroeste 0 -- -- 58
2017-09-07 09:00:00 13.9 11 Este 38 Oeste 0 -- -- 68
2017-09-07 08:00:00 12.6 15 Sudoeste 39 Oeste 0 -- -- 70
2017-09-07 07:00:00 12.9 6 Sudoeste 34 Oeste 0 -- -- 70
2017-09-07 06:00:00 13.2 21 Oeste 35 Oeste 0 -- -- 70
2017-09-07 05:00:00 13.6 20 Oeste 37 Oeste 0 -- -- 68
2017-09-07 04:00:00 14 19 Oeste 42 Oeste 0 -- -- 69
2017-09-07 03:00:00 14.4 21 Oeste 32 Oeste 0 -- -- 69
2017-09-07 02:00:00 15.6 3 Noroeste 33 Oeste 0 -- -- 67
2017-09-07 01:00:00 16.2 18 Oeste 39 Oeste 0 -- -- 65
2017-09-07 00:00:00 17.3 19 Noroeste 38 Oeste 0 -- -- 63
2017-09-06 23:00:00 18.4 14 Noroeste 31 Norte 0 -- -- 61
2017-09-06 22:00:00 20 13 Noroeste 32 Norte 0 -- -- 58
2017-09-06 21:00:00 21.8 6 Oeste 31 Este 0 -- -- 54
2017-09-06 20:00:00 23.5 11 Nordeste 38 Oeste 0 -- -- 48
2017-09-06 19:00:00 25.6 15 Oeste 39 Oeste 0 -- -- 45
2017-09-06 18:00:00 26.8 13 Oeste 36 Este 0 -- -- 42
2017-09-06 17:00:00 26.7 12 Este 36 Este 0 -- -- 41
2017-09-06 16:00:00 26.8 21 Este 41 Este 0 -- -- 42
2017-09-06 15:00:00 26.3 26 Este 40 Nordeste 0 -- -- 44
2017-09-06 14:00:00 26.9 13 Este 22 Este 0 -- -- 42
2017-09-06 13:00:00 24.3 7 Oeste 23 Oeste 0 -- -- 47
2017-09-06 12:00:00 23.1 9 Oeste 27 Oeste 0 -- -- 49
2017-09-06 11:00:00 21.1 5 Noroeste 21 Noroeste 0 -- -- 55
2017-09-06 10:00:00 19.1 5 Sudeste 14 Noroeste 0 -- -- 66
2017-09-06 09:00:00 17.6 4 Oeste 14 Oeste 0 -- -- 71
2017-09-06 08:00:00 17.2 3 Sudoeste 12 Norte 0 -- -- 74
2017-09-06 07:00:00 17.7 6 Oeste 13 Noroeste 0 -- -- 71
2017-09-06 06:00:00 18 4 Sudoeste 12 Noroeste 0 -- -- 74
2017-09-06 05:00:00 18.9 4 Sudoeste 22 Sudoeste 0 -- -- 67
2017-09-06 04:00:00 19.3 12 Oeste 30 Oeste 0 -- -- 66
2017-09-06 03:00:00 20.6 10 Oeste 27 Noroeste 0 -- -- 67
2017-09-06 02:00:00 21.1 4 Nordeste 15 Norte 0 -- -- 76
2017-09-06 01:00:00 21.5 2 Sudoeste 5 Sur 0 -- -- 77
2017-09-06 00:00:00 22.1 0 Calma 5 Sur 0 -- -- 75
2017-09-05 23:00:00 23 3 Sur 5 Sudeste 0 -- -- 71
2017-09-05 22:00:00 23.6 4 Este 9 Sudeste 0 -- -- 68
2017-09-05 21:00:00 25.2 3 Este 13 Nordeste 0 -- -- 57
2017-09-05 20:00:00 26.7 4 Este 17 Este 0 -- -- 45
2017-09-05 19:00:00 28.3 7 Este 20 Este 0 -- -- 42
2017-09-05 18:00:00 28.8 10 Este 35 Este 0 -- -- 41
2017-09-05 17:00:00 29.1 13 Nordeste 30 Este 0 -- -- 40
2017-09-05 16:00:00 29.3 11 Este 27 Este 0 -- -- 40
2017-09-05 15:00:00 28.7 11 Este 24 Este 0 -- -- 41
2017-09-05 14:00:00 28 12 Este 27 Este 0 -- -- 41
2017-09-05 13:00:00 26.8 15 Este 28 Este 0 -- -- 45
2017-09-05 12:00:00 25.5 9 Este 13 Este 0 -- -- 46
2017-09-05 11:00:00 23.4 4 Sudeste 10 Este 0 -- -- 54
2017-09-05 10:00:00 21 3 Sudeste 7 Este 0 -- -- 62
2017-09-05 09:00:00 18 4 Este 8 Nordeste 0 -- -- 71
2017-09-05 08:00:00 16.2 5 Este 7 Sudeste 0 -- -- 77
2017-09-05 07:00:00 16.3 4 Este 8 Este 0 -- -- 77
2017-09-05 06:00:00 16.7 6 Este 8 Este 0 -- -- 77
2017-09-05 05:00:00 16.9 5 Este 11 Este 0 -- -- 77
2017-09-05 04:00:00 17.1 6 Este 10 Este 0 -- -- 78
2017-09-05 03:00:00 17.7 4 Sudeste 8 Sur 0 -- -- 78
2017-09-05 02:00:00 18.4 4 Sudeste 8 Sur 0 -- -- 76
2017-09-05 01:00:00 19.3 4 Sudeste 13 Sudeste 0 -- -- 73
2017-09-05 00:00:00 19.7 7 Sudeste 12 Sur 0 -- -- 73
2017-09-04 23:00:00 20 8 Sur 18 Sur 0 -- -- 73
2017-09-04 22:00:00 20.4 12 Sudoeste 17 Sudoeste 0 -- -- 71
2017-09-04 21:00:00 21.2 5 Sur 13 Sudeste 0 -- -- 69
2017-09-04 20:00:00 22.5 5 Sudeste 18 Sudeste 0 -- -- 64
2017-09-04 19:00:00 24.5 10 Este 25 Este 0 -- -- 45
2017-09-04 18:00:00 25.9 12 Este 31 Este 0 -- -- 41
2017-09-04 17:00:00 26.6 13 Este 37 Este 0 -- -- 39
2017-09-04 16:00:00 26.7 9 Sudeste 38 Este 0 -- -- 39
2017-09-04 15:00:00 25.9 15 Este 38 Este 0 -- -- 41
2017-09-04 14:00:00 25.8 9 Noroeste 31 Oeste 0 -- -- 38
2017-09-04 13:00:00 24.7 13 Este 23 Este 0 -- -- 45
2017-09-04 12:00:00 24.1 10 Sudeste 25 Oeste 0 -- -- 43
2017-09-04 11:00:00 23 7 Oeste 28 Oeste 0 -- -- 42
2017-09-04 10:00:00 22.9 4 Norte 15 Noroeste 0 -- -- 41
2017-09-04 09:00:00 21.5 2 Sudeste 9 Oeste 0 -- -- 43
2017-09-04 08:00:00 19.5 0 Calma 8 Sudeste 0 -- -- 47
2017-09-04 07:00:00 19 3 Sur 9 Sudeste 0 -- -- 48
2017-09-04 06:00:00 18.7 5 Este 14 Sudoeste 0 -- -- 49
2017-09-04 05:00:00 20.8 9 Sudoeste 17 Sudoeste 0 -- -- 46
2017-09-04 04:00:00 20.1 7 Sudoeste 15 Sudoeste 0 -- -- 48
2017-09-04 03:00:00 19.8 8 Sudoeste 13 Sudoeste 0 -- -- 44
2017-09-04 02:00:00 20.1 6 Sudoeste 10 Sudoeste 0 -- -- 41
2017-09-04 01:00:00 20.1 3 Oeste 9 Este 0 -- -- 42
2017-09-04 00:00:00 20.9 0 Calma 16 Nordeste 0 -- -- 40
2017-09-03 23:00:00 22.2 7 Nordeste 17 Noroeste 0 -- -- 35
2017-09-03 22:00:00 22.1 4 Norte 12 Norte 0 -- -- 36
2017-09-03 21:00:00 22.9 3 Oeste 10 Este 0 -- -- 34
2017-09-03 20:00:00 24.1 6 Este 15 Este 0 -- -- 33
2017-09-03 19:00:00 25.7 6 Este 21 Este 0 -- -- 31
2017-09-03 18:00:00 26.2 6 Nordeste 26 Este 0 -- -- 30
2017-09-03 17:00:00 26.6 10 Este 27 Este 0 -- -- 29
2017-09-03 16:00:00 26.8 9 Este 27 Este 0 -- -- 31
2017-09-03 15:00:00 26.4 10 Este 24 Nordeste 0 -- -- 33
2017-09-03 14:00:00 24.9 11 Nordeste 22 Norte 0 -- -- 33
2017-09-03 13:00:00 23 8 Norte 17 Norte 0 -- -- 36
2017-09-03 12:00:00 21.3 2 Norte 8 Nordeste 0 -- -- 43
2017-09-03 11:00:00 18.3 3 Sudeste 9 Este 0 -- -- 48
2017-09-03 10:00:00 16.4 5 Este 11 Este 0 -- -- 50
2017-09-03 09:00:00 13.8 7 Este 10 Este 0 -- -- 58
2017-09-03 08:00:00 13 4 Este -- -- 0 -- -- 61
2017-09-03 07:00:00 12.7 8 Este 9 Este 0 -- -- 62
2017-09-03 06:00:00 13 4 Este 6 Este 0 -- -- 64
2017-09-03 05:00:00 12.7 3 Este 5 Este 0 -- -- 69
2017-09-03 04:00:00 13.2 2 Sur 5 Sur 0 -- -- 64
2017-09-03 03:00:00 13.9 0 Calma 4 Sudoeste 0 -- -- 63
2017-09-03 02:00:00 14.8 2 Este 6 Noroeste 0 -- -- 61
2017-09-03 01:00:00 16.2 0 Calma 6 Este 0 -- -- 56
2017-09-03 00:00:00 16.6 3 Nordeste 7 Este 0 -- -- 55
2017-09-02 23:00:00 17.2 3 Este 6 Sudeste 0 -- -- 53
2017-09-02 22:00:00 18.8 5 Oeste 12 Noroeste 0 -- -- 47
2017-09-02 21:00:00 19.8 11 Noroeste 20 Noroeste 0 -- -- 43
2017-09-02 20:00:00 22.1 9 Noroeste 33 Noroeste 0 -- -- 37
2017-09-02 19:00:00 22.9 19 Noroeste 37 Noroeste 0 -- -- 33
2017-09-02 18:00:00 23.8 14 Noroeste 32 Noroeste 0 -- -- 32
2017-09-02 17:00:00 22.8 15 Oeste 39 Oeste 0 -- -- 33
2017-09-02 16:00:00 22.3 15 Noroeste 40 Oeste 0 -- -- 36
2017-09-02 15:00:00 21.3 15 Oeste 50 Oeste 0 -- -- 38
2017-09-02 14:00:00 20 17 Oeste 57 Oeste 0 -- -- 39
2017-09-02 13:00:00 18.1 22 Oeste 55 Noroeste 0 -- -- 42
2017-09-02 12:00:00 16.8 18 Oeste 47 Noroeste 0 -- -- 49
2017-09-02 11:00:00 15.7 15 Oeste 42 Oeste 0 -- -- 51
2017-09-02 10:00:00 14.3 12 Noroeste 36 Noroeste 0 -- -- 59
2017-09-02 09:00:00 12.8 15 Oeste 36 Oeste 0 -- -- 65
2017-09-02 08:00:00 11.8 16 Oeste 28 Noroeste 0 -- -- 69
2017-09-02 07:00:00 11.7 8 Oeste 24 Sudoeste 0 -- -- 70
2017-09-02 06:00:00 11.9 6 Sudoeste 22 Norte 0 -- -- 71
2017-09-02 05:00:00 12.1 6 Sudoeste 24 Norte 0 -- -- 73
2017-09-02 04:00:00 12.5 12 Oeste 38 Oeste 0 -- -- 70
2017-09-02 03:00:00 13 18 Oeste 42 Oeste 0 -- -- 68
2017-09-02 02:00:00 13.5 18 Oeste 33 Oeste 0 -- -- 67
2017-09-02 01:00:00 14.1 15 Oeste 33 Oeste 0 -- -- 64
2017-09-02 00:00:00 15.1 14 Oeste 28 Oeste 0 -- -- 59
2017-09-01 23:00:00 16 14 Noroeste 37 Noroeste 0 -- -- 56
2017-09-01 22:00:00 17 14 Noroeste 39 Noroeste 0 -- -- 50
2017-09-01 21:00:00 18 25 Noroeste 39 Oeste 0 -- -- 45
2017-09-01 20:00:00 19.2 10 Sudeste 25 Este 0 -- -- 47
2017-09-01 19:00:00 20.2 13 Este 32 Sudeste 0 -- -- 47
2017-09-01 18:00:00 20.6 15 Este 31 Nordeste 0 -- -- 45
2017-09-01 17:00:00 21.3 13 Sudeste 26 Este 0 -- -- 43
2017-09-01 16:00:00 22.7 12 Este 22 Nordeste 0 -- -- 39
2017-09-01 15:00:00 21.2 9 Sudoeste 27 Oeste 0 -- -- 41
2017-09-01 14:00:00 21.2 12 Oeste 28 Oeste 0 -- -- 40
2017-09-01 13:00:00 19.5 9 Noroeste 33 Oeste 0 -- -- 41
2017-09-01 12:00:00 18.5 13 Oeste 32 Noroeste 0 -- -- 41
2017-09-01 11:00:00 17.3 18 Noroeste 32 Oeste 0 -- -- 47
2017-09-01 10:00:00 16.4 18 Noroeste 35 Noroeste 0 -- -- 49
2017-09-01 09:00:00 15.5 13 Oeste 27 Oeste 0 -- -- 51
2017-09-01 08:00:00 15 15 Oeste 30 Oeste 0 -- -- 55
2017-09-01 07:00:00 15 17 Oeste 31 Oeste 0 -- -- 56
2017-09-01 06:00:00 15.1 11 Oeste 19 Oeste 0 -- -- 58
2017-09-01 05:00:00 15.1 5 Sur 24 Noroeste 0 -- -- 61
2017-09-01 04:00:00 15.1 12 Oeste 21 Oeste 0 -- -- 64
2017-09-01 03:00:00 15.2 9 Oeste 27 Oeste 0 -- -- 66
2017-09-01 02:00:00 15.8 16 Oeste 29 Oeste 0 -- -- 65
2017-09-01 01:00:00 16.6 9 Oeste 19 Noroeste 0 -- -- 67
2017-09-01 00:00:00 17.7 7 Noroeste 20 Noroeste 0 -- -- 64
2017-08-31 23:00:00 18.2 11 Noroeste 18 Oeste 0 -- -- 63
2017-08-31 22:00:00 18.6 2 Sudoeste 9 Sudoeste 0 -- -- 64
2017-08-31 21:00:00 19 3 Este 14 Nordeste 0 -- -- 62
2017-08-31 20:00:00 20.1 5 Este 17 Nordeste 0 -- -- 58
2017-08-31 19:00:00 20.2 6 Este 19 Este 0 -- -- 58
2017-08-31 18:00:00 20.8 11 Este 22 Sudeste 0 -- -- 56
2017-08-31 17:00:00 21.7 9 Sudoeste 25 Oeste 0 -- -- 57
2017-08-31 16:00:00 21 7 Este 20 Nordeste 0 -- -- 58
2017-08-31 15:00:00 21.3 12 Este 37 Este 0 -- -- 61
2017-08-31 14:00:00 19.7 18 Este 35 Este 0 -- -- 65
2017-08-31 13:00:00 21.2 10 Este 28 Este 0 -- -- 59
2017-08-31 12:00:00 19.6 17 Este 26 Este 0 -- -- 64
2017-08-31 11:00:00 18.7 7 Este 19 Noroeste 0 -- -- 66
2017-08-31 10:00:00 17 7 Oeste 29 Oeste 0 -- -- 71
2017-08-31 09:00:00 15.8 4 Noroeste 14 Sudoeste 0 -- -- 79
2017-08-31 08:00:00 15.3 4 Sudeste 25 Sudoeste 0 -- -- 82
2017-08-31 07:00:00 15.2 9 Oeste 33 Oeste 0 -- -- 82
2017-08-31 06:00:00 15.8 11 Oeste 36 Norte 0 -- -- 81
2017-08-31 05:00:00 16.2 18 Oeste 33 Oeste 0 -- -- 81
2017-08-31 04:00:00 16.3 18 Oeste 37 Oeste 0 -- -- 84
2017-08-31 03:00:00 17.9 14 Noroeste 26 Noroeste 0 -- -- 84
2017-08-31 02:00:00 17.9 5 Este 8 Este 0 -- -- 85
2017-08-31 01:00:00 17.5 3 Este 9 Este 0 -- -- 90
2017-08-31 00:00:00 17.4 6 Sudeste 10 Sudeste 0 -- -- 91
2017-08-30 23:00:00 17.8 4 Sudoeste 6 Sudeste 0 -- -- 87
2017-08-30 22:00:00 17.9 4 Sur 8 Sudoeste 0 -- -- 89
2017-08-30 21:00:00 18.2 3 Este 20 Noroeste 0 -- -- 88
2017-08-30 20:00:00 19 7 Oeste 15 Oeste 0 -- -- 83
2017-08-30 19:00:00 18.9 2 Sur 20 Norte 0.6 -- -- 88
2017-08-30 18:00:00 18.9 9 Norte 34 Este 6.8 -- -- 83
2017-08-30 17:00:00 22.9 7 Este 24 Este 0.2 -- -- 61
2017-08-30 16:00:00 24.9 9 Este 20 Este 0 -- -- 49
2017-08-30 15:00:00 25.4 7 Nordeste 27 Este 0 -- -- 49
2017-08-30 14:00:00 25.8 8 Este 23 Este 0 -- -- 48
2017-08-30 13:00:00 25 8 Sudeste 17 Este 0 -- -- 50
2017-08-30 12:00:00 23.9 7 Sudeste 13 Sur 0 -- -- 52
2017-08-30 11:00:00 21.6 7 Sudeste 15 Este 0 -- -- 59
2017-08-30 10:00:00 18.9 4 Sudeste 13 Sudeste 0 -- -- 71
2017-08-30 09:00:00 17.3 0 Calma 9 Oeste 0 -- -- 74
2017-08-30 08:00:00 16 6 Oeste 14 Este 0 -- -- 81
2017-08-30 07:00:00 16.3 8 Sudeste 19 Sur 0 -- -- 77
2017-08-30 06:00:00 16.7 7 Sur 16 Sudeste 0 -- -- 77
2017-08-30 05:00:00 16.9 3 Sudeste 24 Sudoeste 0 -- -- 77
2017-08-30 04:00:00 16.8 9 Sudeste 22 Sudeste 0.4 -- -- 76
2017-08-30 03:00:00 18.3 11 Este 33 Sudeste 0.2 -- -- 67
2017-08-30 02:00:00 19.3 12 Sur 33 Sudeste 0 -- -- 66
2017-08-30 01:00:00 20.7 18 Sudeste 35 Sudeste 0 -- -- 57
2017-08-30 00:00:00 20.4 13 Sur 30 Sur 0 -- -- 57
2017-08-29 23:00:00 19.6 8 Sur 18 Sudeste 0 -- -- 57
2017-08-29 22:00:00 19.1 12 Sudeste 23 Este 0 -- -- 60
2017-08-29 21:00:00 18.4 4 Sur 18 Este 0.2 -- -- 63
2017-08-29 20:00:00 18.1 6 Este 17 Sur 0.2 -- -- 72
2017-08-29 19:00:00 18.9 6 Sudeste 32 Sur 0.4 -- -- 66
2017-08-29 18:00:00 20.2 23 Sur 39 Sur 0 -- -- 58
2017-08-29 17:00:00 21.4 19 Sur 44 Sur 0 -- -- 61
2017-08-29 16:00:00 22.3 21 Sur 37 Sudeste 0 -- -- 61
2017-08-29 15:00:00 23.9 17 Este 33 Este 0 -- -- 62
2017-08-29 14:00:00 23.2 11 Sudeste 22 Este 0 -- -- 59
2017-08-29 13:00:00 23.5 6 Nordeste 17 Nordeste 0 -- -- 63
2017-08-29 12:00:00 21.7 7 Norte 19 Nordeste 0 -- -- 68
2017-08-29 11:00:00 22.2 6 Norte 12 Este 0 -- -- 67
2017-08-29 10:00:00 20.5 6 Este 15 Este 0 -- -- 71
2017-08-29 09:00:00 17 3 Sudoeste 10 Sudeste 0 -- -- 84
2017-08-29 08:00:00 16.3 3 Este 8 Sudeste 0 -- -- 87
2017-08-29 07:00:00 16.4 3 Sudoeste 12 Oeste 0 -- -- 85
2017-08-29 06:00:00 16.1 8 Sur 13 Sur 0 -- -- 86
2017-08-29 05:00:00 16.5 3 Sudoeste 6 Sur 0 -- -- 84
2017-08-29 04:00:00 17.3 3 Este 5 Nordeste 0 -- -- 80
2017-08-29 03:00:00 17.6 0 Calma 9 Sudoeste 0 -- -- 75
2017-08-29 02:00:00 17.9 5 Oeste 19 Noroeste 0 -- -- 75
2017-08-29 01:00:00 18.8 6 Noroeste 37 Noroeste 0 -- -- 72
2017-08-29 00:00:00 19.6 20 Oeste 38 Oeste 0 -- -- 70
2017-08-28 23:00:00 21.8 19 Oeste 38 Oeste 0 -- -- 62
2017-08-28 22:00:00 23.3 10 Sudoeste 33 Oeste 0 -- -- 53
2017-08-28 21:00:00 24.7 2 Oeste 15 Este 0 -- -- 59
2017-08-28 20:00:00 25.3 8 Este 25 Nordeste 0 -- -- 54
2017-08-28 19:00:00 26.4 7 Nordeste 24 Nordeste 0 -- -- 49
2017-08-28 18:00:00 27 10 Nordeste 19 Este 0 -- -- 44
2017-08-28 17:00:00 27.5 12 Este 37 Sudoeste 0 -- -- 40
2017-08-28 16:00:00 28.3 22 Sur 42 Sudeste 0 -- -- 41
2017-08-28 15:00:00 28.1 8 Norte 21 Nordeste 0 -- -- 51
2017-08-28 14:00:00 27.8 10 Norte 22 Nordeste 0 -- -- 49
2017-08-28 13:00:00 26.5 9 Nordeste 20 Nordeste 0 -- -- 52
2017-08-28 12:00:00 27.3 2 Noroeste 9 Norte 0 -- -- 48
2017-08-28 11:00:00 25.8 4 Este 9 Este 0 -- -- 52
2017-08-28 10:00:00 21.7 0 Calma 5 Este 0 -- -- 57
2017-08-28 09:00:00 18.8 2 Este 7 Este 0 -- -- 71
2017-08-28 08:00:00 19.4 2 Sudeste 6 Este 0 -- -- 63
2017-08-28 07:00:00 19.1 3 Sudeste 6 Este 0 -- -- 66
2017-08-28 06:00:00 17.6 6 Este 9 Este 0 -- -- 78
2017-08-28 05:00:00 18.4 0 Calma 4 Nordeste 0 -- -- 79
2017-08-28 04:00:00 18.3 5 Este 6 Este 0 -- -- 80
2017-08-28 03:00:00 18.7 5 Este 6 Este 0 -- -- 81
2017-08-28 02:00:00 19.2 3 Este 6 Este 0 -- -- 78
2017-08-28 01:00:00 19.5 3 Sudeste 4 Sudeste 0 -- -- 79
2017-08-28 00:00:00 20 3 Sudeste 14 Sudoeste 0 -- -- 75
2017-08-27 23:00:00 19.6 8 Sudoeste 11 Sudoeste 0 -- -- 81
2017-08-27 22:00:00 20.2 0 Calma 9 Oeste 0 -- -- 79
2017-08-27 21:00:00 20.9 5 Este 9 Este 0 -- -- 77
2017-08-27 20:00:00 21.8 5 Este 26 Este 0 -- -- 71
2017-08-27 19:00:00 23.9 7 Sudeste 30 Este 0 -- -- 55
2017-08-27 18:00:00 25.3 11 Noroeste 39 Sudoeste 0 -- -- 51
2017-08-27 17:00:00 25.8 20 Oeste 42 Oeste 0 -- -- 47
2017-08-27 16:00:00 29.6 7 Sudeste 33 Este 0 -- -- 39
2017-08-27 15:00:00 29 13 Este 37 Este 0 -- -- 46
2017-08-27 14:00:00 28.6 19 Este 33 Este 0 -- -- 40
2017-08-27 13:00:00 27.9 5 Norte 13 Norte 0 -- -- 44
2017-08-27 12:00:00 24.6 5 Noroeste 8 Norte 0 -- -- 45
2017-08-27 11:00:00 22.7 3 Este 5 Nordeste 0 -- -- 72
2017-08-27 10:00:00 21.9 2 Este 6 Este 0 -- -- 76
2017-08-27 09:00:00 20.8 3 Sudoeste 5 Sudoeste 0 -- -- 75
2017-08-27 08:00:00 20.3 4 Este 6 Este 0 -- -- 76
2017-08-27 07:00:00 20.2 3 Este 7 Sur 0 -- -- 75
2017-08-27 06:00:00 20.5 0 Calma 14 Norte 0 -- -- 73
2017-08-27 05:00:00 20.8 5 Oeste 18 Norte 0 -- -- 71
2017-08-27 04:00:00 22.2 8 Norte 17 Norte 0 -- -- 64
2017-08-27 03:00:00 21.8 4 Sur 12 Sur 0 -- -- 68
2017-08-27 02:00:00 22.4 6 Sudoeste 19 Sudoeste 0 -- -- 61
2017-08-27 01:00:00 21.2 7 Sudoeste 15 Sudoeste 0 -- -- 66
2017-08-27 00:00:00 20.1 7 Sudoeste 15 Sur 0.2 -- -- 78
2017-08-26 23:00:00 21.2 7 Este 36 Noroeste 0 -- -- 70
2017-08-26 22:00:00 22.3 20 Oeste 45 Oeste 0 -- -- 62
2017-08-26 21:00:00 18.2 8 Sudoeste 18 Sur 0.2 -- -- 91
2017-08-26 20:00:00 18 7 Sudoeste 45 Oeste 5.8 -- -- 91
2017-08-26 19:00:00 19.7 30 Norte 89 Noroeste 0.8 -- -- 79
2017-08-26 18:00:00 29.9 16 Sudeste 35 Sudeste 0 -- -- 53
2017-08-26 17:00:00 32.6 18 Este 34 Este 0 -- -- 43
2017-08-26 16:00:00 33.4 21 Este 32 Este 0 -- -- 38
2017-08-26 15:00:00 33.6 11 Este 29 Este 0 -- -- 34
2017-08-26 14:00:00 33.1 18 Este 32 Este 0 -- -- 34
2017-08-26 13:00:00 33.3 8 Nordeste 19 Nordeste 0 -- -- 30
2017-08-26 12:00:00 31.4 5 Nordeste 12 Este 0 -- -- 31
2017-08-26 11:00:00 27.6 2 Oeste 5 Oeste 0 -- -- 38
2017-08-26 10:00:00 25.8 2 Este 5 Nordeste 0 -- -- 39
2017-08-26 09:00:00 25 2 Sudeste 9 Sur 0 -- -- 39
2017-08-26 08:00:00 23.2 6 Sudeste 12 Sudeste 0 -- -- 43
2017-08-26 07:00:00 22.2 3 Sur 6 Oeste 0 -- -- 48
2017-08-26 06:00:00 22 4 Sudeste 14 Sudoeste 0 -- -- 49
2017-08-26 05:00:00 22.4 10 Sur 16 Sur 0 -- -- 49
2017-08-26 04:00:00 22.1 7 Sur 12 Sur 0 -- -- 49
2017-08-26 03:00:00 22.1 4 Sudeste 12 Este 0 -- -- 50
2017-08-26 02:00:00 22 7 Sur 12 Sudeste 0 -- -- 51
2017-08-26 01:00:00 22.3 8 Sudeste 21 Sur 0 -- -- 51
2017-08-26 00:00:00 23.3 7 Sudoeste 25 Sur 0 -- -- 45
2017-08-25 23:00:00 23.3 15 Sur 65 Este 0 -- -- 46
2017-08-25 22:00:00 25.2 32 Sur 71 Sur 0 -- -- 41
2017-08-25 21:00:00 27.8 9 Sur 18 Sudoeste 0 -- -- 47
2017-08-25 20:00:00 28.2 5 Sudeste 29 Sudeste 0 -- -- 51
2017-08-25 19:00:00 29.3 17 Este 37 Este 0 -- -- 50
2017-08-25 18:00:00 31.9 11 Sudeste 37 Este 0 -- -- 41
2017-08-25 17:00:00 30.9 21 Este 46 Este 0 -- -- 43
2017-08-25 16:00:00 33.2 17 Sudeste 51 Este 0 -- -- 22
2017-08-25 15:00:00 30.3 11 Sudeste 24 Sudeste 0 -- -- 31
2017-08-25 14:00:00 31.8 20 Este 34 Este 0 -- -- 30
2017-08-25 13:00:00 32.7 10 Sudeste 24 Sur 0 -- -- 25
2017-08-25 12:00:00 30.4 6 Sudoeste 14 Sudoeste 0 -- -- 27
2017-08-25 11:00:00 26.9 7 Sudoeste 14 Sur 0 -- -- 30
2017-08-25 10:00:00 25.7 7 Sur 13 Sur 0 -- -- 31
2017-08-25 09:00:00 24 4 Sudeste 6 Sudeste 0 -- -- 33
2017-08-25 08:00:00 22.5 2 Sur 5 Sudeste 0 -- -- 34
2017-08-25 07:00:00 22.9 4 Sudoeste 7 Sudoeste 0 -- -- 34
2017-08-25 06:00:00 23.6 3 Oeste 4 Este 0 -- -- 42
2017-08-25 05:00:00 24.1 0 Calma 9 Sur 0 -- -- 44
2017-08-25 04:00:00 24.2 5 Este 14 Este 0 -- -- 45
2017-08-25 03:00:00 24 9 Este 16 Sudeste 0 -- -- 48
2017-08-25 02:00:00 23.8 7 Sur 15 Sur 0 -- -- 50
2017-08-25 01:00:00 23.6 8 Sur 14 Sur 0 -- -- 52
2017-08-25 00:00:00 23.8 8 Sur 16 Sur 0 -- -- 54
2017-08-24 23:00:00 24.5 6 Sudeste 13 Sudeste 0 -- -- 53
2017-08-24 22:00:00 25.5 7 Sudeste 14 Sudoeste 0 -- -- 51
2017-08-24 21:00:00 26.8 10 Sudeste 31 Sur 0 -- -- 48
2017-08-24 20:00:00 29.1 18 Sur 32 Sur 0 -- -- 43
2017-08-24 19:00:00 30.8 11 Sur 28 Sudeste 0 -- -- 41
2017-08-24 18:00:00 31.2 17 Este 30 Este 0 -- -- 41
2017-08-24 17:00:00 32.7 15 Este 31 Nordeste 0 -- -- 35
2017-08-24 16:00:00 32.7 19 Este 33 Este 0 -- -- 32
2017-08-24 15:00:00 33.3 15 Este 26 Este 0 -- -- 30
2017-08-24 14:00:00 32.8 8 Sur 20 Sur 0 -- -- 30
2017-08-24 13:00:00 30.9 6 Sudeste 17 Este 0 -- -- 34
2017-08-24 12:00:00 28.2 7 Este 14 Este 0 -- -- 46
2017-08-24 11:00:00 25.3 6 Sur 12 Sur 0 -- -- 55
2017-08-24 10:00:00 22.5 5 Sur 8 Sur 0 -- -- 71
2017-08-24 09:00:00 20.5 3 Sudeste 5 Este 0 -- -- 82
2017-08-24 08:00:00 19.5 3 Sudoeste 13 Sur 0 -- -- 85
2017-08-24 07:00:00 19 6 Sudeste 17 Sudoeste 0 -- -- 90
2017-08-24 06:00:00 19.5 10 Sudoeste 14 Sudoeste 0 -- -- 86
2017-08-24 05:00:00 20.1 3 Sur 15 Este 0 -- -- 84
2017-08-24 04:00:00 20.3 4 Este 22 Nordeste 0 -- -- 86
2017-08-24 03:00:00 20.3 6 Sudeste 49 Norte 0 -- -- 86
2017-08-24 02:00:00 23.2 8 Noroeste 13 Noroeste 0 -- -- 63
2017-08-24 01:00:00 23.5 5 Norte 22 Este 0 -- -- 66
2017-08-24 00:00:00 24.2 12 Norte 23 Nordeste 0 -- -- 62